Spruce Grove, Canada
Current Conditions -  °F | °C
As of 10:00 AM on Thursday 18 Dec 2014 (Local Time) from CWSE Reporting Station
Broken Clouds Broken Clouds  
Wind Chill: 11°   Ceiling: 21700
Heat Index: 11°   Visibility: 15mi
Dew Point:   Wind: 0mph
Humidity: 87%   Direction: NA
Pressure: 29.82"   Gusts: NA
Location:  53.54°N, 113.9°W
Report Text: CWSE 181700Z 00000KT 15SM FEW148 BKN217 M12/M14 A2982 RMK SLP162 LAST OBS/NEXT 182000Z CC ASOCTD T11191137 WSI/SWOB
Loading
Personal Weather Stations






























Interactive Weather Map New forecast layout! Learn more

10-Day Weather Forecast

Advertisements
Track Severe Weather on mobile